Terminal Aerodrome Forecast
Issued by NWS Paducah, KY

Home | Current Version | Previous Version | Graphics & Text | Print | Product List | Glossary On
Versions: 1 2 3 4 5 6 7 8 9 10 11 12 13 14 15 16 17 18 19 20 21
000
FTUS43 KPAH 031138
TAFEVV
TAF
KEVV 031138Z 0312/0412 00000KT 4SM BR SCT005 BKN020
      TEMPO 0312/0314 1SM BR OVC004
     FM031400 30005KT P6SM SCT012 BKN025
     FM031800 28007KT P6SM VCSH BKN025
      TEMPO 0318/0322 3SM -TSRA BR OVC015CB
     FM032200 32006KT P6SM SCT035 BKN100
     FM040800 35003KT 4SM BR SCT250=

USA.gov is the U.S. government's official web portal to all federal, state and local government web resources and services.